createdAt,value
2023-01-17T00:00:05.464Z,1.67
2023-01-17T00:02:36.048Z,2.83
2023-01-17T00:05:20.075Z,3.13
2023-01-17T00:08:02.653Z,4.70
2023-01-17T00:10:33.153Z,2.57
2023-01-17T00:13:05.267Z,2.70
2023-01-17T00:15:40.000Z,3.00
2023-01-17T00:18:10.116Z,2.80
2023-01-17T00:20:52.613Z,2.43
2023-01-17T00:23:38.996Z,1.30
2023-01-17T00:26:14.792Z,2.00
2023-01-17T00:28:44.466Z,3.73
2023-01-17T00:31:16.574Z,2.37
2023-01-17T00:33:44.007Z,1.70
2023-01-17T00:36:12.040Z,1.90
2023-01-17T00:38:40.171Z,2.77
2023-01-17T00:41:10.894Z,2.80
2023-01-17T00:43:53.887Z,2.03
2023-01-17T00:46:39.401Z,2.03
2023-01-17T00:49:22.817Z,3.33
2023-01-17T00:52:05.278Z,4.00
2023-01-17T00:54:47.870Z,3.30
2023-01-17T00:57:30.504Z,3.60
2023-01-17T01:00:13.238Z,4.50
2023-01-17T01:02:58.464Z,3.43
2023-01-17T01:05:41.041Z,3.00
2023-01-17T01:08:37.162Z,2.20
2023-01-17T01:11:24.934Z,2.20
2023-01-17T01:14:07.542Z,4.47
2023-01-17T01:16:49.994Z,3.67
2023-01-17T01:19:35.168Z,2.83
2023-01-17T01:22:18.105Z,3.50
2023-01-17T01:25:00.566Z,5.40
2023-01-17T01:27:43.079Z,7.67
2023-01-17T01:30:27.015Z,8.00
2023-01-17T01:33:09.542Z,2.90
2023-01-17T01:35:43.120Z,2.60
2023-01-17T01:38:13.261Z,3.90
2023-01-17T01:40:48.804Z,5.43
2023-01-17T01:43:22.654Z,2.53
2023-01-17T01:46:00.056Z,3.67
2023-01-17T01:48:43.368Z,7.73
2023-01-17T01:51:27.075Z,3.90
2023-01-17T01:54:04.094Z,2.97
2023-01-17T01:56:36.189Z,2.30
2023-01-17T01:59:11.652Z,3.50
2023-01-17T02:01:41.758Z,3.00
2023-01-17T02:04:13.135Z,3.57
2023-01-17T02:06:54.330Z,8.03
2023-01-17T02:09:24.767Z,3.20
2023-01-17T02:11:54.784Z,8.43
2023-01-17T02:14:25.739Z,3.40
2023-01-17T02:17:15.916Z,4.40
2023-01-17T02:20:18.874Z,3.30
2023-01-17T02:23:28.415Z,2.77
2023-01-17T02:26:48.354Z,3.60
2023-01-17T02:30:02.693Z,3.23
2023-01-17T02:32:56.556Z,4.10
2023-01-17T02:35:41.029Z,5.10
2023-01-17T02:38:33.061Z,3.47
2023-01-17T02:41:08.223Z,3.07
2023-01-17T02:43:40.327Z,2.93
2023-01-17T02:46:10.384Z,4.23
2023-01-17T02:48:43.627Z,5.70
2023-01-17T02:52:07.553Z,9.43
2023-01-17T02:55:18.784Z,4.03
2023-01-17T02:58:17.381Z,3.30
2023-01-17T03:01:04.929Z,2.07
2023-01-17T03:03:52.330Z,2.50
2023-01-17T03:06:29.396Z,4.50
2023-01-17T03:08:59.504Z,3.13
2023-01-17T03:11:29.977Z,5.60
2023-01-17T03:14:00.829Z,2.37
2023-01-17T03:16:34.969Z,2.60
2023-01-17T03:19:09.844Z,3.67
2023-01-17T03:21:39.864Z,4.87
2023-01-17T03:24:10.412Z,4.10
2023-01-17T03:26:40.434Z,6.30
2023-01-17T03:29:10.352Z,2.93
2023-01-17T03:31:40.347Z,3.93
2023-01-17T03:34:12.892Z,3.20
2023-01-17T03:36:42.968Z,3.13
2023-01-17T03:39:12.978Z,4.60
2023-01-17T03:41:42.972Z,3.20
2023-01-17T03:44:12.919Z,2.47
2023-01-17T03:46:43.164Z,2.70
2023-01-17T03:49:16.778Z,7.10
2023-01-17T03:51:46.801Z,2.20
2023-01-17T03:54:16.836Z,2.50
2023-01-17T03:56:46.847Z,2.30
2023-01-17T03:59:16.842Z,3.50
2023-01-17T04:01:47.017Z,3.90
2023-01-17T04:04:19.801Z,4.40
2023-01-17T04:06:49.921Z,2.10
2023-01-17T04:09:19.919Z,3.40
2023-01-17T04:11:51.027Z,2.90
2023-01-17T04:14:21.381Z,4.50
2023-01-17T04:16:51.599Z,2.50
2023-01-17T04:19:24.528Z,2.80
2023-01-17T04:21:54.530Z,2.60
2023-01-17T04:24:24.678Z,3.17
2023-01-17T04:26:54.645Z,3.50
2023-01-17T04:29:24.689Z,3.00
2023-01-17T04:31:54.863Z,2.00
2023-01-17T04:34:27.765Z,4.23
2023-01-17T04:36:57.742Z,3.20
2023-01-17T04:39:27.759Z,7.63
2023-01-17T04:41:57.732Z,2.90
2023-01-17T04:44:27.818Z,4.63
2023-01-17T04:46:57.785Z,9.03
2023-01-17T04:49:30.399Z,4.97
2023-01-17T04:52:00.433Z,4.53
2023-01-17T04:54:30.448Z,5.63
2023-01-17T04:57:00.433Z,6.60
2023-01-17T04:59:30.563Z,11.17
2023-01-17T05:02:00.684Z,9.00
2023-01-17T05:04:33.409Z,9.97
2023-01-17T05:07:03.439Z,9.07
2023-01-17T05:09:33.523Z,8.70
2023-01-17T05:12:03.674Z,13.17
2023-01-17T05:14:34.452Z,5.03
2023-01-17T05:17:05.009Z,6.67
2023-01-17T05:19:37.788Z,5.07
2023-01-17T05:22:15.176Z,5.10
2023-01-17T05:24:46.316Z,5.90
2023-01-17T05:27:17.814Z,12.27
2023-01-17T05:29:47.851Z,4.63
2023-01-17T05:32:18.521Z,6.30
2023-01-17T05:34:51.115Z,7.23
2023-01-17T05:37:21.067Z,4.87
2023-01-17T05:39:51.040Z,4.77
2023-01-17T05:42:21.057Z,5.10
2023-01-17T05:44:51.041Z,8.07
2023-01-17T05:47:21.043Z,8.73
2023-01-17T05:49:53.599Z,7.70
2023-01-17T05:52:23.579Z,4.13
2023-01-17T05:54:53.573Z,5.00
2023-01-17T05:57:23.554Z,8.37
2023-01-17T05:59:53.654Z,20.27
2023-01-17T06:02:23.636Z,14.53
2023-01-17T06:04:56.221Z,13.20
2023-01-17T06:07:26.323Z,6.70
2023-01-17T06:09:56.327Z,5.20
2023-01-17T06:12:26.430Z,11.40
2023-01-17T06:14:56.601Z,12.23
2023-01-17T06:17:26.805Z,7.23
2023-01-17T06:19:59.357Z,12.77
2023-01-17T06:22:29.354Z,11.57
2023-01-17T06:24:59.395Z,8.37
2023-01-17T06:27:30.070Z,21.50
2023-01-17T06:30:00.108Z,10.43
2023-01-17T06:32:30.130Z,10.77
2023-01-17T06:35:02.807Z,12.87
2023-01-17T06:37:32.857Z,17.60
2023-01-17T06:40:02.993Z,23.23
2023-01-17T06:42:33.859Z,68.77
2023-01-17T06:45:03.827Z,24.97
2023-01-17T06:47:33.819Z,23.87
2023-01-17T06:50:07.073Z,21.20
2023-01-17T06:52:37.302Z,35.77
2023-01-17T06:55:09.108Z,27.50
2023-01-17T06:57:39.347Z,22.27
2023-01-17T07:00:12.002Z,11.00
2023-01-17T07:02:42.050Z,12.60
2023-01-17T07:05:16.408Z,8.63
2023-01-17T07:07:47.587Z,9.30
2023-01-17T07:10:18.923Z,10.90
2023-01-17T07:12:49.227Z,12.60
2023-01-17T07:15:19.414Z,31.63
2023-01-17T07:17:49.427Z,19.23
2023-01-17T07:20:22.347Z,14.97
2023-01-17T07:22:52.313Z,9.47
2023-01-17T07:25:22.974Z,21.40
2023-01-17T07:27:57.777Z,10.10
2023-01-17T07:30:28.197Z,13.03
2023-01-17T07:32:59.101Z,12.87
2023-01-17T07:35:31.677Z,8.60
2023-01-17T07:38:01.655Z,8.60
2023-01-17T07:40:34.934Z,13.00
2023-01-17T07:43:13.660Z,6.60
2023-01-17T07:45:45.933Z,7.30
2023-01-17T07:48:16.148Z,5.23
2023-01-17T07:50:54.306Z,13.97
2023-01-17T07:53:25.791Z,7.13
2023-01-17T07:55:56.129Z,9.20
2023-01-17T07:58:26.248Z,14.17
2023-01-17T08:00:56.265Z,7.20
2023-01-17T08:03:26.546Z,8.87
2023-01-17T08:05:59.477Z,8.43
2023-01-17T08:08:31.025Z,7.57
2023-01-17T08:11:01.161Z,8.97
2023-01-17T08:13:31.123Z,6.93
2023-01-17T08:16:02.555Z,12.67
2023-01-17T08:18:33.186Z,10.73
2023-01-17T08:21:07.477Z,9.63
2023-01-17T08:23:37.496Z,9.17
2023-01-17T08:26:08.019Z,10.47
2023-01-17T08:28:38.056Z,9.60
2023-01-17T08:31:12.445Z,7.10
2023-01-17T08:33:42.439Z,10.03
2023-01-17T08:36:15.074Z,11.13
2023-01-17T08:38:45.043Z,12.03
2023-01-17T08:41:15.673Z,32.30
2023-01-17T08:43:45.647Z,15.53
2023-01-17T08:46:15.645Z,11.53
2023-01-17T08:48:45.887Z,12.67
2023-01-17T08:51:18.538Z,7.93
2023-01-17T08:53:48.646Z,5.93
2023-01-17T08:56:18.829Z,7.73
2023-01-17T08:58:48.891Z,8.97
2023-01-17T09:01:19.475Z,7.20
2023-01-17T09:03:52.076Z,6.30
2023-01-17T09:06:24.717Z,8.73
2023-01-17T09:08:55.450Z,6.80
2023-01-17T09:11:25.403Z,7.13
2023-01-17T09:13:55.440Z,5.47
2023-01-17T09:16:25.513Z,7.27
2023-01-17T09:18:57.365Z,6.97
2023-01-17T09:21:30.122Z,5.23
2023-01-17T09:24:00.107Z,7.67
2023-01-17T09:26:32.589Z,6.60
2023-01-17T09:29:02.607Z,5.40
2023-01-17T09:31:32.800Z,5.90
2023-01-17T09:34:02.888Z,9.70
2023-01-17T09:36:35.593Z,8.00
2023-01-17T09:39:08.195Z,6.60
2023-01-17T09:41:49.880Z,8.40
2023-01-17T09:44:30.722Z,8.40
2023-01-17T09:47:07.513Z,5.20
2023-01-17T09:49:45.032Z,8.57
2023-01-17T09:52:23.385Z,6.77
2023-01-17T09:54:54.731Z,6.70
2023-01-17T09:57:49.058Z,8.20
2023-01-17T10:00:38.171Z,7.70
2023-01-17T10:03:40.188Z,5.73
2023-01-17T10:06:33.724Z,5.80
2023-01-17T10:09:42.858Z,4.73
2023-01-17T10:12:28.274Z,5.27
2023-01-17T10:15:42.873Z,9.73
2023-01-17T10:19:01.234Z,4.70
2023-01-17T10:21:50.141Z,3.87
2023-01-17T10:24:52.068Z,3.43
2023-01-17T10:27:28.634Z,4.70
2023-01-17T10:29:58.723Z,3.70
2023-01-17T10:32:35.902Z,4.13
2023-01-17T10:35:20.544Z,5.70
2023-01-17T10:37:56.793Z,2.40
2023-01-17T10:40:44.637Z,4.97
2023-01-17T10:43:25.272Z,3.17
2023-01-17T10:45:58.745Z,4.60
2023-01-17T10:48:42.828Z,7.63
2023-01-17T10:51:31.543Z,3.43
2023-01-17T10:54:20.255Z,2.27
2023-01-17T10:56:53.849Z,3.20
2023-01-17T10:59:32.713Z,4.50
2023-01-17T11:02:07.456Z,3.10
2023-01-17T11:04:42.982Z,2.57
2023-01-17T11:07:17.369Z,4.10
2023-01-17T11:09:49.701Z,3.40
2023-01-17T11:12:31.906Z,2.53
2023-01-17T11:15:09.012Z,3.10
2023-01-17T11:17:44.160Z,2.67
2023-01-17T11:20:24.503Z,3.90
2023-01-17T11:23:10.883Z,4.53
2023-01-17T11:25:41.703Z,2.60
2023-01-17T11:28:30.564Z,3.10
2023-01-17T11:31:04.347Z,4.23
2023-01-17T11:33:45.458Z,3.83
2023-01-17T11:36:25.565Z,1.90
2023-01-17T11:39:03.006Z,3.13
2023-01-17T11:41:38.909Z,2.13
2023-01-17T11:44:29.562Z,2.33
2023-01-17T11:47:19.609Z,1.97
2023-01-17T11:49:51.778Z,2.10
2023-01-17T11:52:27.332Z,5.00
2023-01-17T11:54:58.536Z,1.80
2023-01-17T11:57:32.002Z,7.20
2023-01-17T12:00:20.883Z,3.50
2023-01-17T12:03:30.065Z,2.87
2023-01-17T12:06:10.708Z,2.30
2023-01-17T12:08:59.241Z,2.50
2023-01-17T12:12:04.493Z,7.10
2023-01-17T12:14:45.815Z,2.77
2023-01-17T12:17:38.818Z,2.23
2023-01-17T12:20:24.182Z,3.30
2023-01-17T12:23:25.907Z,2.63
2023-01-17T12:26:19.540Z,2.30
2023-01-17T12:29:31.683Z,2.10
2023-01-17T12:32:25.897Z,2.10
2023-01-17T12:35:05.107Z,5.00
2023-01-17T12:37:41.636Z,2.50
2023-01-17T12:40:26.204Z,6.43
2023-01-17T12:43:06.252Z,1.77
2023-01-17T12:45:44.474Z,2.23
2023-01-17T12:48:21.766Z,2.17
2023-01-17T12:51:01.023Z,2.00
2023-01-17T12:53:42.867Z,6.90
2023-01-17T12:56:22.691Z,3.10
2023-01-17T12:59:01.663Z,1.90
2023-01-17T13:01:39.840Z,2.23
2023-01-17T13:04:25.544Z,2.23
2023-01-17T13:07:11.629Z,1.80
2023-01-17T13:09:48.950Z,3.70
2023-01-17T13:12:23.624Z,2.53
2023-01-17T13:14:53.977Z,5.13
2023-01-17T13:17:37.764Z,3.20
2023-01-17T13:20:22.692Z,2.37
2023-01-17T13:22:54.648Z,3.60
2023-01-17T13:25:44.084Z,3.33
2023-01-17T13:28:32.325Z,3.63
2023-01-17T13:31:44.683Z,3.43
2023-01-17T13:34:41.169Z,3.57
2023-01-17T13:37:47.636Z,3.60
2023-01-17T13:40:34.429Z,4.20
2023-01-17T13:43:07.539Z,4.27
2023-01-17T13:45:40.496Z,3.10
2023-01-17T13:48:34.821Z,2.97
2023-01-17T13:51:06.138Z,4.30
2023-01-17T13:54:05.218Z,5.13
2023-01-17T13:56:39.135Z,2.53
2023-01-17T13:59:31.352Z,6.17
2023-01-17T14:02:01.400Z,3.50
2023-01-17T14:05:15.257Z,2.30
2023-01-17T14:07:51.399Z,2.47
2023-01-17T14:10:37.847Z,6.50
2023-01-17T14:13:31.428Z,4.73
2023-01-17T14:16:01.702Z,3.60
2023-01-17T14:18:40.563Z,10.10
2023-01-17T14:21:21.794Z,6.03
2023-01-17T14:24:07.543Z,2.50
2023-01-17T14:27:00.383Z,4.73
2023-01-17T14:29:56.928Z,5.50
2023-01-17T14:32:32.254Z,4.60
2023-01-17T14:35:02.538Z,5.07
2023-01-17T14:37:51.975Z,4.10
2023-01-17T14:40:26.526Z,8.30
2023-01-17T14:43:05.707Z,6.60
2023-01-17T14:45:38.459Z,5.40
2023-01-17T14:48:19.002Z,6.30
2023-01-17T14:50:51.294Z,4.30
2023-01-17T14:53:26.052Z,5.07
2023-01-17T14:56:00.411Z,4.67
2023-01-17T14:58:36.457Z,10.97
2023-01-17T15:01:14.200Z,5.20
2023-01-17T15:03:50.588Z,6.30
2023-01-17T15:06:25.165Z,6.53
2023-01-17T15:08:56.142Z,4.30
2023-01-17T15:11:30.341Z,5.63
2023-01-17T15:14:08.816Z,7.83
2023-01-17T15:16:41.169Z,9.70
2023-01-17T15:19:16.523Z,3.80
2023-01-17T15:21:50.756Z,4.57
2023-01-17T15:24:25.177Z,5.60
2023-01-17T15:26:55.424Z,5.57
2023-01-17T15:29:33.748Z,8.70
2023-01-17T15:32:07.386Z,4.37
2023-01-17T15:34:42.333Z,9.47
2023-01-17T15:37:31.283Z,10.50
2023-01-17T15:40:09.895Z,7.73
2023-01-17T15:42:46.253Z,6.57
2023-01-17T15:45:25.424Z,9.93
2023-01-17T15:47:55.424Z,7.53
2023-01-17T15:50:36.569Z,9.33
2023-01-17T15:53:29.686Z,11.80
2023-01-17T15:56:00.326Z,5.10
2023-01-17T15:58:33.007Z,4.60
2023-01-17T16:01:05.832Z,7.47
2023-01-17T16:03:37.696Z,11.10
2023-01-17T16:06:32.533Z,7.80
2023-01-17T16:09:04.719Z,13.70
2023-01-17T16:11:34.745Z,22.57
2023-01-17T16:14:07.614Z,8.13
2023-01-17T16:16:40.275Z,12.60
2023-01-17T16:19:11.858Z,11.50
2023-01-17T16:21:45.090Z,10.90
2023-01-17T16:24:15.135Z,11.63
2023-01-17T16:26:45.143Z,8.80
2023-01-17T16:29:15.149Z,7.93
2023-01-17T16:31:47.780Z,11.50
2023-01-17T16:34:18.227Z,8.17
2023-01-17T16:36:48.325Z,7.50
2023-01-17T16:39:18.435Z,18.77
2023-01-17T16:41:48.437Z,13.10
2023-01-17T16:44:18.422Z,12.67
2023-01-17T16:46:51.206Z,8.17
2023-01-17T16:49:21.372Z,14.60
2023-01-17T16:51:51.853Z,13.37
2023-01-17T16:54:21.846Z,6.77
2023-01-17T16:56:52.191Z,5.60
2023-01-17T16:59:22.506Z,7.90
2023-01-17T17:01:55.118Z,8.80
2023-01-17T17:04:25.609Z,5.97
2023-01-17T17:06:55.775Z,7.83
2023-01-17T17:09:25.878Z,6.50
2023-01-17T17:11:56.911Z,8.40
2023-01-17T17:14:26.944Z,7.80
2023-01-17T17:17:02.673Z,10.33
2023-01-17T17:19:33.612Z,5.53
2023-01-17T17:22:06.643Z,5.47
2023-01-17T17:24:36.831Z,9.60
2023-01-17T17:27:06.989Z,6.17
2023-01-17T17:29:37.022Z,7.70
2023-01-17T17:32:11.616Z,5.90
2023-01-17T17:34:41.655Z,7.57
2023-01-17T17:37:12.163Z,9.17
2023-01-17T17:39:42.457Z,7.13
2023-01-17T17:42:12.578Z,10.73
2023-01-17T17:44:42.606Z,8.40
2023-01-17T17:47:16.192Z,9.43
2023-01-17T17:49:46.359Z,6.30
2023-01-17T17:52:16.447Z,7.57
2023-01-17T17:54:46.557Z,5.70
2023-01-17T17:57:16.582Z,8.63
2023-01-17T17:59:46.552Z,14.00
2023-01-17T18:02:19.419Z,14.27
2023-01-17T18:04:49.555Z,5.80
2023-01-17T18:07:19.856Z,11.17
2023-01-17T18:09:49.919Z,7.93
2023-01-17T18:12:20.367Z,11.13
2023-01-17T18:14:50.435Z,9.23
2023-01-17T18:17:23.255Z,7.10
2023-01-17T18:19:53.395Z,5.43
2023-01-17T18:22:24.400Z,8.40
2023-01-17T18:24:54.372Z,10.80
2023-01-17T18:27:24.331Z,7.47
2023-01-17T18:29:54.402Z,5.90
2023-01-17T18:32:27.010Z,10.13
2023-01-17T18:34:57.022Z,7.13
2023-01-17T18:37:27.052Z,9.47
2023-01-17T18:39:57.397Z,11.47
2023-01-17T18:42:28.573Z,11.03
2023-01-17T18:44:58.697Z,10.87
2023-01-17T18:47:32.556Z,17.73
2023-01-17T18:50:02.551Z,8.83
2023-01-17T18:52:33.914Z,11.13
2023-01-17T18:55:03.926Z,12.30
2023-01-17T18:57:33.929Z,7.77
2023-01-17T19:00:04.032Z,7.60
2023-01-17T19:02:36.635Z,13.63
2023-01-17T19:05:08.837Z,9.40
2023-01-17T19:07:38.782Z,11.10
2023-01-17T19:10:10.690Z,8.80
2023-01-17T19:12:40.699Z,11.90
2023-01-17T19:15:12.870Z,16.57
2023-01-17T19:17:45.404Z,18.40
2023-01-17T19:20:17.323Z,10.60
2023-01-17T19:22:47.519Z,17.07
2023-01-17T19:25:18.794Z,11.53
2023-01-17T19:27:48.743Z,10.30
2023-01-17T19:30:19.603Z,21.47
2023-01-17T19:32:53.074Z,12.70
2023-01-17T19:35:23.276Z,19.33
2023-01-17T19:37:55.825Z,17.13
2023-01-17T19:40:27.041Z,14.60
2023-01-17T19:42:58.117Z,16.10
2023-01-17T19:45:28.744Z,11.10
2023-01-17T19:48:01.323Z,12.73
2023-01-17T19:50:31.708Z,15.30
2023-01-17T19:53:01.730Z,12.90
2023-01-17T19:55:31.936Z,15.43
2023-01-17T19:58:01.943Z,20.40
2023-01-17T20:00:45.907Z,15.67
2023-01-17T20:03:19.185Z,13.13
2023-01-17T20:05:59.228Z,15.30
2023-01-17T20:08:29.209Z,14.87
2023-01-17T20:11:04.737Z,17.10
2023-01-17T20:13:35.532Z,14.90
2023-01-17T20:16:08.508Z,14.20
2023-01-17T20:18:41.489Z,15.33
2023-01-17T20:21:15.659Z,15.13
2023-01-17T20:23:47.375Z,16.90
2023-01-17T20:26:19.519Z,12.40
2023-01-17T20:28:52.455Z,10.90
2023-01-17T20:31:25.680Z,13.60
2023-01-17T20:33:59.421Z,12.00
2023-01-17T20:36:33.156Z,13.10
2023-01-17T20:39:06.358Z,11.40
2023-01-17T20:41:39.121Z,14.40
2023-01-17T20:44:13.911Z,15.53
2023-01-17T20:46:44.593Z,14.93
2023-01-17T20:49:20.267Z,19.90
2023-01-17T20:51:50.680Z,13.43
2023-01-17T20:54:23.512Z,23.50
2023-01-17T20:56:53.592Z,13.90
2023-01-17T20:59:25.185Z,19.67
2023-01-17T21:01:55.433Z,22.50
2023-01-17T21:04:29.087Z,16.50
2023-01-17T21:06:59.035Z,15.30
2023-01-17T21:09:29.006Z,16.03
2023-01-17T21:12:01.271Z,14.60
2023-01-17T21:14:31.455Z,18.00
2023-01-17T21:17:01.505Z,17.70
2023-01-17T21:19:34.184Z,21.07
2023-01-17T21:22:05.465Z,15.37
2023-01-17T21:24:35.507Z,16.67
2023-01-17T21:27:05.505Z,20.67
2023-01-17T21:29:36.628Z,17.00
2023-01-17T21:32:08.765Z,17.13
2023-01-17T21:34:41.369Z,18.70
2023-01-17T21:37:11.407Z,13.83
2023-01-17T21:39:41.497Z,17.47
2023-01-17T21:42:11.573Z,17.57
2023-01-17T21:44:41.596Z,18.77
2023-01-17T21:47:11.575Z,16.50
2023-01-17T21:49:44.172Z,15.33
2023-01-17T21:52:23.887Z,23.30
2023-01-17T21:55:06.370Z,17.57
2023-01-17T21:57:48.929Z,23.90
2023-01-17T22:00:20.533Z,24.00
2023-01-17T22:02:51.435Z,31.17
2023-01-17T22:05:24.084Z,23.53
2023-01-17T22:08:08.107Z,23.33
2023-01-17T22:10:44.668Z,20.53
2023-01-17T22:13:16.547Z,22.70
2023-01-17T22:15:47.445Z,24.80
2023-01-17T22:18:17.479Z,26.67
2023-01-17T22:20:50.053Z,18.07
2023-01-17T22:23:20.644Z,22.83
2023-01-17T22:25:50.740Z,22.93
2023-01-17T22:28:20.756Z,19.93
2023-01-17T22:30:50.815Z,20.23
2023-01-17T22:33:20.998Z,25.70
2023-01-17T22:36:00.862Z,26.97
2023-01-17T22:38:31.548Z,25.73
2023-01-17T22:41:08.405Z,23.37
2023-01-17T22:43:41.116Z,22.03
2023-01-17T22:46:15.522Z,28.63
2023-01-17T22:48:46.155Z,20.77
2023-01-17T22:51:21.245Z,23.13
2023-01-17T22:53:54.432Z,20.57
2023-01-17T22:56:27.261Z,25.30
2023-01-17T22:58:57.725Z,24.70
2023-01-17T23:01:30.641Z,24.33
2023-01-17T23:04:03.195Z,20.37
2023-01-17T23:06:38.209Z,24.37
2023-01-17T23:09:11.463Z,24.33
2023-01-17T23:11:49.790Z,22.93
2023-01-17T23:14:22.454Z,24.30
2023-01-17T23:17:07.971Z,18.80
2023-01-17T23:19:41.378Z,25.70
2023-01-17T23:22:19.384Z,22.93
2023-01-17T23:24:53.339Z,23.63
2023-01-17T23:27:39.943Z,24.57
2023-01-17T23:30:13.838Z,20.33
2023-01-17T23:32:48.069Z,26.80
2023-01-17T23:35:19.919Z,23.10
2023-01-17T23:38:05.316Z,26.63
2023-01-17T23:40:37.688Z,25.00
2023-01-17T23:43:20.561Z,31.07
2023-01-17T23:45:50.786Z,19.10
2023-01-17T23:48:23.651Z,20.40
2023-01-17T23:50:54.044Z,27.80
2023-01-17T23:53:27.032Z,24.77
2023-01-17T23:55:59.696Z,21.73
2023-01-17T23:58:31.120Z,27.60
